Time;durP1;ratioP1;P1;durP2;ratioP2;P2;SDS_P1;SDS_P2;PMS_P1;PMS_P2;Temp;Humidity;BMP_temperature;BMP_pressure;BME280_temperature;BME280_humidity;BME280_pressure;Samples;Min_cycle;Max_cycle;Signal;HPM_P1;HPM_P2
2024/01/19 00:00:51;;;;;;;172.98;158.65;;;;;;;2.76;100.00;99842.94;5080581;28;20051;-57
2024/01/19 00:03:18;;;;;;;161.38;147.43;;;;;;;2.51;100.00;99845.75;5085554;28;20071;-57
2024/01/19 00:05:46;;;;;;;153.55;140.32;;;;;;;2.89;100.00;99837.88;5083017;28;20514;-58
2024/01/19 00:08:13;;;;;;;176.18;162.07;;;;;;;2.52;100.00;99844.75;5079712;28;20071;-58
2024/01/19 00:10:40;;;;;;;170.55;156.60;;;;;;;2.90;100.00;99836.09;5080308;28;20052;-58
2024/01/19 00:13:07;;;;;;;164.13;150.32;;;;;;;2.13;100.00;99844.81;5082115;28;20056;-58
2024/01/19 00:15:34;;;;;;;160.50;147.52;;;;;;;2.06;100.00;99838.66;5075552;28;20496;-58
2024/01/19 00:18:04;;;;;;;138.95;127.53;;;;;;;2.12;100.00;99835.34;5079482;28;20559;-58
2024/01/19 00:20:30;;;;;;;125.68;114.88;;;;;;;1.93;100.00;99841.00;5077750;28;20060;-58
2024/01/19 00:22:59;;;;;;;142.10;129.75;;;;;;;1.92;100.00;99848.03;5076740;28;20056;-59
2024/01/19 00:25:26;;;;;;;147.10;134.85;;;;;;;1.86;100.00;99848.72;5082960;28;20080;-58
2024/01/19 00:27:53;;;;;;;142.95;131.05;;;;;;;1.88;100.00;99849.38;5075467;28;20504;-58
2024/01/19 00:30:19;;;;;;;138.70;127.25;;;;;;;1.79;100.00;99855.63;5070516;28;20280;-58
2024/01/19 00:32:46;;;;;;;158.63;144.98;;;;;;;1.74;100.00;99853.50;5082500;28;20573;-58
2024/01/19 00:35:13;;;;;;;146.55;134.52;;;;;;;1.75;100.00;99849.91;5081218;28;20066;-57
2024/01/19 00:37:40;;;;;;;168.88;154.82;;;;;;;1.98;100.00;99857.00;5079802;28;20063;-58
2024/01/19 00:40:11;;;;;;;160.27;147.27;;;;;;;1.56;100.00;99845.88;5073233;28;20459;-58
2024/01/19 00:42:39;;;;;;;152.90;140.00;;;;;;;1.61;100.00;99850.63;5080923;28;20141;-57
2024/01/19 00:45:07;;;;;;;159.77;145.77;;;;;;;1.75;100.00;99842.03;5076545;28;20060;-57
2024/01/19 00:47:34;;;;;;;151.50;139.00;;;;;;;1.90;100.00;99841.34;5084922;28;20047;-57
2024/01/19 00:50:02;;;;;;;141.73;130.07;;;;;;;1.60;100.00;99838.50;5075445;28;20079;-57
2024/01/19 00:52:29;;;;;;;147.18;134.98;;;;;;;1.57;100.00;99842.28;5084440;28;20443;-57
2024/01/19 00:54:55;;;;;;;166.57;153.38;;;;;;;1.50;100.00;99833.47;5076831;28;20048;-57
2024/01/19 00:57:24;;;;;;;143.90;132.40;;;;;;;1.51;100.00;99842.97;5078876;28;20459;-59
2024/01/19 00:59:50;;;;;;;144.85;133.38;;;;;;;1.43;100.00;99853.44;5082302;28;20458;-57
2024/01/19 01:02:17;;;;;;;137.35;126.28;;;;;;;1.44;100.00;99847.22;5082511;28;20450;-58
2024/01/19 01:04:44;;;;;;;142.32;131.02;;;;;;;1.31;100.00;99852.19;5078849;28;20106;-58
2024/01/19 01:07:11;;;;;;;144.40;133.00;;;;;;;1.28;100.00;99850.69;5085536;28;20055;-58
2024/01/19 01:09:39;;;;;;;165.23;152.43;;;;;;;1.23;100.00;99844.34;5073551;28;20060;-58
2024/01/19 01:12:06;;;;;;;140.63;128.57;;;;;;;1.18;100.00;99849.22;5073797;28;20056;-58
2024/01/19 01:14:34;;;;;;;139.10;127.63;;;;;;;1.20;100.00;99845.47;5072879;28;20064;-58
2024/01/19 01:17:01;;;;;;;157.73;145.05;;;;;;;1.20;100.00;99858.56;5085352;28;20075;-58
2024/01/19 01:19:28;;;;;;;135.75;124.50;;;;;;;1.11;100.00;99859.53;5076647;28;20053;-58
2024/01/19 01:21:55;;;;;;;129.60;118.80;;;;;;;0.92;100.00;99852.88;5082421;28;20435;-57
2024/01/19 01:24:22;;;;;;;129.90;119.05;;;;;;;0.79;100.00;99861.22;5073142;28;20270;-57
2024/01/19 01:26:49;;;;;;;129.65;118.95;;;;;;;0.77;100.00;99855.31;5072595;28;20052;-57
2024/01/19 01:29:16;;;;;;;137.45;126.25;;;;;;;0.65;100.00;99867.91;5080675;28;20056;-57
2024/01/19 01:31:44;;;;;;;121.45;111.45;;;;;;;0.68;100.00;99862.34;5073235;28;20052;-59
2024/01/19 01:34:11;;;;;;;125.90;115.35;;;;;;;0.69;100.00;99855.31;5086404;28;20063;-58
2024/01/19 01:36:37;;;;;;;130.70;120.38;;;;;;;0.74;100.00;99862.69;5078110;28;20067;-58
2024/01/19 01:39:04;;;;;;;133.40;122.38;;;;;;;0.73;100.00;99853.19;5076086;28;20459;-58
2024/01/19 01:41:33;;;;;;;128.55;118.25;;;;;;;0.63;100.00;99854.16;5085552;28;20060;-58
2024/01/19 01:44:00;;;;;;;122.93;112.82;;;;;;;0.68;100.00;99854.50;5084023;28;20051;-57
2024/01/19 01:46:27;;;;;;;110.90;101.53;;;;;;;0.68;100.00;99846.66;5080190;28;20051;-58
2024/01/19 01:48:55;;;;;;;130.88;120.35;;;;;;;0.68;100.00;99844.03;5071257;28;20051;-57
2024/01/19 01:51:22;;;;;;;112.22;102.82;;;;;;;0.64;100.00;99847.16;5079069;28;20536;-58
2024/01/19 01:53:49;;;;;;;103.53;94.72;;;;;;;0.58;100.00;99848.63;5083070;28;20495;-58
2024/01/19 01:56:17;;;;;;;130.43;120.50;;;;;;;0.22;100.00;99848.88;5076154;28;20379;-57
2024/01/19 01:58:45;;;;;;;115.90;106.80;;;;;;;0.29;100.00;99848.25;5077788;28;20052;-57
2024/01/19 02:01:11;;;;;;;105.40;95.80;;;;;;;0.39;100.00;99839.31;5076604;28;20523;-58
2024/01/19 02:03:40;;;;;;;110.50;100.90;;;;;;;0.49;100.00;99835.72;5080005;28;20083;-57
2024/01/19 02:06:08;;;;;;;102.82;94.32;;;;;;;0.48;100.00;99836.69;5080792;28;20064;-58
2024/01/19 02:08:35;;;;;;;97.05;89.22;;;;;;;0.37;100.00;99836.03;5079752;28;20404;-59
2024/01/19 02:11:02;;;;;;;92.40;84.75;;;;;;;0.49;100.00;99840.94;5077676;28;20060;-58
2024/01/19 02:13:29;;;;;;;112.93;103.90;;;;;;;0.38;100.00;99842.06;5071004;28;20060;-58
2024/01/19 02:15:59;;;;;;;107.65;98.85;;;;;;;0.35;100.00;99850.22;5079766;28;20052;-58
2024/01/19 02:18:26;;;;;;;106.22;97.40;;;;;;;0.03;100.00;99851.78;5073700;28;20052;-58
2024/01/19 02:20:54;;;;;;;109.28;100.45;;;;;;;0.21;100.00;99857.72;5077366;28;20062;-58
2024/01/19 02:23:27;;;;;;;125.32;115.57;;;;;;;0.22;100.00;99858.53;5075803;28;20052;-58
2024/01/19 02:25:56;;;;;;;108.50;100.00;;;;;;;0.11;100.00;99866.66;5077149;28;20068;-58
2024/01/19 02:28:23;;;;;;;115.25;106.30;;;;;;;0.23;100.00;99865.38;5077820;28;20060;-57
2024/01/19 02:30:50;;;;;;;123.07;113.43;;;;;;;0.28;100.00;99872.75;5068311;28;20455;-56
2024/01/19 02:33:17;;;;;;;116.70;107.18;;;;;;;0.30;100.00;99881.22;5069704;28;20590;-57
2024/01/19 02:35:44;;;;;;;123.35;113.35;;;;;;;0.19;100.00;99869.28;5078753;28;20212;-57
2024/01/19 02:38:11;;;;;;;110.97;102.18;;;;;;;0.09;100.00;99873.81;5076601;28;20508;-57
2024/01/19 02:40:37;;;;;;;116.40;107.20;;;;;;;-0.13;100.00;99877.81;5085637;28;20067;-58
2024/01/19 02:43:06;;;;;;;106.43;98.18;;;;;;;0.04;100.00;99868.28;5075784;28;20153;-57
2024/01/19 02:45:33;;;;;;;113.90;104.57;;;;;;;0.11;100.00;99875.28;5074496;28;20060;-57
2024/01/19 02:47:59;;;;;;;122.10;111.45;;;;;;;0.09;100.00;99866.81;5075468;28;20059;-57
2024/01/19 02:50:26;;;;;;;122.22;112.72;;;;;;;0.17;100.00;99877.28;5082216;28;20048;-57
2024/01/19 02:52:53;;;;;;;118.95;109.68;;;;;;;0.13;100.00;99873.34;5075458;28;20078;-57
2024/01/19 02:55:20;;;;;;;130.82;120.65;;;;;;;-0.03;100.00;99875.88;5071190;28;20060;-57
2024/01/19 02:57:47;;;;;;;111.65;102.72;;;;;;;-0.28;100.00;99874.97;5073717;28;20048;-57
2024/01/19 03:00:16;;;;;;;125.63;116.20;;;;;;;-0.08;100.00;99873.78;5073674;28;20060;-57
2024/01/19 03:02:42;;;;;;;129.30;119.15;;;;;;;-0.29;100.00;99875.97;5076488;28;20056;-57
2024/01/19 03:05:10;;;;;;;147.10;135.95;;;;;;;-0.19;100.00;99888.88;5076655;28;20567;-58
2024/01/19 03:07:36;;;;;;;147.00;135.50;;;;;;;-0.06;100.00;99895.31;5080162;28;20099;-58
2024/01/19 03:10:04;;;;;;;143.05;132.05;;;;;;;0.10;100.00;99881.50;5075953;28;20106;-58
2024/01/19 03:12:30;;;;;;;137.00;127.00;;;;;;;0.15;100.00;99883.63;5074640;28;20090;-57
2024/01/19 03:14:57;;;;;;;122.38;113.03;;;;;;;0.16;100.00;99877.44;5078508;28;20052;-57
2024/01/19 03:17:27;;;;;;;130.02;120.25;;;;;;;0.21;100.00;99889.06;5079813;28;20718;-57
2024/01/19 03:19:54;;;;;;;143.65;133.02;;;;;;;0.16;100.00;99878.25;5082776;28;20048;-57
2024/01/19 03:22:20;;;;;;;125.47;115.95;;;;;;;0.04;100.00;99882.13;5074197;28;20518;-58
2024/01/19 03:24:47;;;;;;;114.75;105.38;;;;;;;-0.01;100.00;99881.78;5079448;28;20060;-58
2024/01/19 03:27:14;;;;;;;117.88;108.78;;;;;;;-0.06;100.00;99884.03;5073367;28;20091;-58
2024/01/19 03:29:41;;;;;;;145.25;134.45;;;;;;;-0.17;100.00;99879.94;5079130;28;20106;-57
2024/01/19 03:32:08;;;;;;;154.02;142.32;;;;;;;-0.10;100.00;99888.75;5069953;28;20443;-57
2024/01/19 03:34:36;;;;;;;152.50;141.10;;;;;;;-0.08;100.00;99892.03;5082040;28;20052;-58
2024/01/19 03:37:04;;;;;;;113.32;103.85;;;;;;;-0.06;100.00;99886.66;5079466;28;20324;-58
2024/01/19 03:39:32;;;;;;;97.72;89.63;;;;;;;0.01;100.00;99892.91;5086442;28;20500;-58
2024/01/19 03:41:58;;;;;;;94.40;86.55;;;;;;;0.02;100.00;99891.09;5085559;28;20055;-58
2024/01/19 03:44:26;;;;;;;98.22;90.18;;;;;;;0.05;100.00;99894.22;5085417;28;20462;-58
2024/01/19 03:46:53;;;;;;;120.40;111.30;;;;;;;-0.10;100.00;99896.59;5083664;28;20311;-58
2024/01/19 03:49:20;;;;;;;86.55;79.22;;;;;;;-0.01;100.00;99895.66;5078513;28;20055;-58
2024/01/19 03:52:05;;;;;;;83.55;76.45;;;;;;;0.08;100.00;99899.13;5080472;28;20057;-58
2024/01/19 03:54:33;;;;;;;92.18;84.57;;;;;;;-0.12;100.00;99905.56;5080391;28;20052;-57
2024/01/19 03:57:01;;;;;;;89.35;81.78;;;;;;;-0.18;100.00;99907.03;5078880;28;20094;-57
2024/01/19 03:59:28;;;;;;;88.65;81.30;;;;;;;-0.04;100.00;99906.41;5081130;28;20056;-58
2024/01/19 04:01:55;;;;;;;83.35;76.20;;;;;;;0.12;100.00;99900.44;5080623;28;20390;-58
2024/01/19 04:04:22;;;;;;;93.85;86.05;;;;;;;0.08;100.00;99917.41;5082891;28;20087;-58
2024/01/19 04:06:49;;;;;;;95.55;87.57;;;;;;;0.01;100.00;99916.41;5082576;28;20058;-57
2024/01/19 04:09:17;;;;;;;90.93;83.07;;;;;;;0.18;100.00;99919.88;5077995;28;20079;-57
2024/01/19 04:11:45;;;;;;;79.32;72.25;;;;;;;0.44;100.00;99919.78;5086608;28;20439;-58
2024/01/19 04:14:12;;;;;;;91.68;83.88;;;;;;;0.33;100.00;99918.28;5075302;28;20055;-58
2024/01/19 04:16:39;;;;;;;90.43;82.38;;;;;;;0.06;100.00;99914.16;5082995;28;20473;-57
2024/01/19 04:19:07;;;;;;;100.28;91.82;;;;;;;0.02;100.00;99920.63;5074626;28;20060;-58
2024/01/19 04:21:34;;;;;;;107.10;97.90;;;;;;;0.00;100.00;99930.44;5081950;28;20055;-56
2024/01/19 04:24:01;;;;;;;85.90;78.18;;;;;;;-0.01;100.00;99926.97;5074380;28;20547;-58
2024/01/19 04:26:30;;;;;;;96.93;88.82;;;;;;;-0.09;100.00;99926.97;5085763;28;20607;-58
2024/01/19 04:28:57;;;;;;;100.32;92.45;;;;;;;-0.15;100.00;99931.97;5080825;28;20140;-58
2024/01/19 04:31:24;;;;;;;101.97;93.43;;;;;;;-0.17;100.00;99947.81;5073668;28;20839;-58
2024/01/19 04:33:51;;;;;;;98.55;90.50;;;;;;;0.09;100.00;99946.94;5079346;28;20048;-58
2024/01/19 04:36:18;;;;;;;99.70;91.22;;;;;;;-0.10;100.00;99953.22;5081281;28;20056;-58
2024/01/19 04:38:48;;;;;;;79.28;72.00;;;;;;;0.02;100.00;99954.56;5078032;28;20481;-58
2024/01/19 04:41:15;;;;;;;80.07;72.97;;;;;;;-0.08;100.00;99948.66;5065864;28;20063;-56
2024/01/19 04:43:44;;;;;;;85.32;78.10;;;;;;;-0.09;100.00;99957.44;5081091;28;20063;-57
2024/01/19 04:46:10;;;;;;;75.05;68.45;;;;;;;0.01;100.00;99963.41;5079317;28;20056;-58
2024/01/19 04:48:37;;;;;;;95.22;87.40;;;;;;;0.05;100.00;99962.09;5076335;28;20048;-58
2024/01/19 04:51:06;;;;;;;101.65;93.57;;;;;;;0.11;100.00;99968.50;5072571;28;20065;-57
2024/01/19 04:53:33;;;;;;;75.88;69.07;;;;;;;0.27;100.00;99967.75;5076134;28;20463;-59
2024/01/19 04:56:00;;;;;;;87.75;80.13;;;;;;;0.20;100.00;99972.78;5075541;28;20052;-57
2024/01/19 04:58:27;;;;;;;93.82;85.63;;;;;;;0.22;100.00;99981.28;5081288;28;20051;-57
2024/01/19 05:00:55;;;;;;;99.03;91.03;;;;;;;1.00;100.00;99974.94;5078677;28;20556;-57
2024/01/19 05:03:22;;;;;;;88.05;80.85;;;;;;;0.06;100.00;99966.38;5078420;28;20435;-56
2024/01/19 05:05:48;;;;;;;81.45;74.47;;;;;;;-0.09;100.00;99970.50;5079195;28;20052;-57
2024/01/19 05:08:15;;;;;;;84.10;76.82;;;;;;;0.15;100.00;99977.63;5076896;28;20060;-56
2024/01/19 05:10:42;;;;;;;83.10;75.97;;;;;;;0.09;100.00;99980.88;5074391;28;20056;-56
2024/01/19 05:13:09;;;;;;;93.95;85.80;;;;;;;0.05;100.00;99980.38;5081925;28;20515;-56
2024/01/19 05:15:36;;;;;;;99.00;91.15;;;;;;;-0.20;100.00;99979.44;5081375;28;20063;-58
2024/01/19 05:18:05;;;;;;;110.18;101.47;;;;;;;-0.21;100.00;99987.41;5075400;28;20444;-56
2024/01/19 05:20:32;;;;;;;103.85;95.85;;;;;;;-0.14;100.00;99991.88;5077756;28;20516;-57
2024/01/19 05:22:59;;;;;;;89.10;81.88;;;;;;;-0.06;100.00;99994.53;5081262;28;20060;-56
2024/01/19 05:25:26;;;;;;;95.82;88.15;;;;;;;-0.14;100.00;100002.31;5077645;28;20167;-56
2024/01/19 05:27:54;;;;;;;92.20;84.75;;;;;;;-0.21;100.00;99998.69;5079203;28;20058;-56
2024/01/19 05:30:21;;;;;;;79.40;72.60;;;;;;;-0.30;100.00;99989.97;5077224;28;20051;-56
2024/01/19 05:32:48;;;;;;;86.65;79.30;;;;;;;-0.28;100.00;99998.47;5073225;28;20553;-56
2024/01/19 05:35:16;;;;;;;73.03;66.57;;;;;;;-0.09;100.00;100009.66;5080990;28;20079;-56
2024/01/19 05:37:43;;;;;;;75.13;68.75;;;;;;;-0.22;100.00;100017.91;5077591;28;20079;-57
2024/01/19 05:40:11;;;;;;;74.60;68.13;;;;;;;-0.31;100.00;100009.19;5083722;28;20526;-56
2024/01/19 05:42:37;;;;;;;79.57;72.97;;;;;;;-0.11;100.00;100019.47;5079023;28;20546;-56
2024/01/19 05:45:05;;;;;;;78.68;72.18;;;;;;;0.11;100.00;100016.31;5075730;28;20438;-57
2024/01/19 05:47:32;;;;;;;70.35;63.75;;;;;;;-0.09;100.00;100009.66;5069774;28;20079;-56
2024/01/19 05:49:59;;;;;;;74.63;68.43;;;;;;;-0.33;100.00;100023.41;5081565;28;20489;-56
2024/01/19 05:52:27;;;;;;;71.13;65.05;;;;;;;-0.18;100.00;100026.25;5080698;28;20060;-57
2024/01/19 05:54:54;;;;;;;77.03;70.50;;;;;;;-0.13;100.00;100024.00;5081198;28;20110;-56
2024/01/19 05:57:21;;;;;;;83.53;76.82;;;;;;;-0.13;100.00;100024.81;5081499;28;20438;-56
2024/01/19 05:59:48;;;;;;;82.65;76.13;;;;;;;-0.10;100.00;100028.91;5082200;28;20048;-57
2024/01/19 06:02:15;;;;;;;75.93;69.75;;;;;;;0.02;100.00;100032.09;5081522;28;20523;-58
2024/01/19 06:04:42;;;;;;;78.13;71.80;;;;;;;0.12;100.00;100032.78;5082251;28;20086;-56
2024/01/19 06:07:09;;;;;;;74.15;68.03;;;;;;;-0.04;100.00;100023.91;5084423;28;20055;-57
2024/01/19 06:09:37;;;;;;;77.07;70.47;;;;;;;-0.15;100.00;100031.16;5083726;28;20052;-56
2024/01/19 06:12:05;;;;;;;91.50;83.95;;;;;;;-0.05;100.00;100037.94;5083053;28;20056;-57
2024/01/19 06:14:32;;;;;;;91.18;84.28;;;;;;;0.05;100.00;100042.22;5080964;28;20508;-56
2024/01/19 06:16:59;;;;;;;93.57;86.30;;;;;;;0.18;100.00;100047.84;5081784;28;20056;-56
2024/01/19 06:19:26;;;;;;;86.53;79.57;;;;;;;0.03;100.00;100041.56;5082924;28;20058;-56
2024/01/19 06:21:52;;;;;;;81.57;74.30;;;;;;;0.18;100.00;100043.47;5083323;28;20063;-56
2024/01/19 06:24:19;;;;;;;94.68;86.97;;;;;;;0.26;100.00;100050.50;5085285;28;20063;-56
2024/01/19 06:26:49;;;;;;;99.05;91.18;;;;;;;0.08;100.00;100054.97;5079052;28;20048;-57
2024/01/19 06:29:16;;;;;;;114.35;104.78;;;;;;;0.27;100.00;100062.59;5074365;28;20487;-57
2024/01/19 06:31:44;;;;;;;115.50;106.13;;;;;;;0.36;100.00;100066.88;5069135;28;20053;-56
2024/01/19 06:34:11;;;;;;;106.72;98.68;;;;;;;0.45;100.00;100071.19;5082403;28;20078;-56
2024/01/19 06:36:38;;;;;;;101.65;92.95;;;;;;;0.65;100.00;100073.56;5077657;28;20052;-57
2024/01/19 06:39:07;;;;;;;105.50;97.05;;;;;;;0.80;100.00;100084.25;5077428;28;20055;-56
2024/01/19 06:41:34;;;;;;;98.07;89.57;;;;;;;0.73;100.00;100084.06;5072207;28;20056;-56
2024/01/19 06:44:05;;;;;;;111.32;102.07;;;;;;;0.98;100.00;100089.38;5078497;28;20358;-56
2024/01/19 06:46:31;;;;;;;113.50;103.18;;;;;;;1.82;100.00;100085.72;5068807;28;20503;-56
2024/01/19 06:48:58;;;;;;;117.75;107.80;;;;;;;1.50;100.00;100097.81;5073662;28;20053;-56
2024/01/19 06:51:28;;;;;;;128.00;117.05;;;;;;;1.93;100.00;100108.13;5079290;28;20055;-56
2024/01/19 06:53:55;;;;;;;121.57;111.80;;;;;;;1.83;100.00;100101.25;5067968;28;20063;-56
2024/01/19 06:56:22;;;;;;;149.07;137.73;;;;;;;2.45;100.00;100110.34;5076205;28;20056;-57
2024/01/19 06:58:49;;;;;;;153.57;140.95;;;;;;;2.67;100.00;100117.50;5075661;28;20481;-57
2024/01/19 07:01:17;;;;;;;145.05;133.00;;;;;;;2.89;100.00;100120.38;5078791;28;20063;-57
2024/01/19 07:03:44;;;;;;;150.93;137.98;;;;;;;3.40;100.00;100120.78;5074506;28;20045;-57
2024/01/19 07:06:11;;;;;;;198.73;183.48;;;;;;;3.67;100.00;100117.63;5077475;28;20431;-57
2024/01/19 07:08:38;;;;;;;180.65;165.40;;;;;;;3.73;100.00;100115.31;5068193;28;20056;-57
2024/01/19 07:11:05;;;;;;;182.63;167.95;;;;;;;4.21;100.00;100121.97;5076863;28;20135;-57
2024/01/19 07:13:32;;;;;;;176.35;162.15;;;;;;;3.84;100.00;100131.47;5083088;28;20529;-57
2024/01/19 07:15:59;;;;;;;194.68;179.82;;;;;;;4.18;100.00;100132.00;5078318;28;20067;-57
2024/01/19 07:18:27;;;;;;;200.80;184.77;;;;;;;5.53;100.00;100129.09;5070868;28;20067;-57
2024/01/19 07:20:55;;;;;;;206.68;190.13;;;;;;;6.04;100.00;100129.00;5059654;28;20454;-57
2024/01/19 07:23:21;;;;;;;215.13;197.50;;;;;;;6.56;100.00;100123.25;5070546;28;21000;-57
2024/01/19 07:25:48;;;;;;;270.50;250.10;;;;;;;7.05;100.00;100116.19;5080467;28;20063;-58
2024/01/19 07:28:15;;;;;;;248.00;228.38;;;;;;;7.10;100.00;100125.16;5072540;28;20056;-58
2024/01/19 07:30:42;;;;;;;240.98;222.82;;;;;;;7.43;100.00;100123.66;5076228;28;20052;-58
2024/01/19 07:33:09;;;;;;;244.02;225.70;;;;;;;7.21;100.00;100118.50;5069603;28;20052;-58
2024/01/19 07:35:38;;;;;;;226.70;210.05;;;;;;;7.55;100.00;100116.75;5076496;28;20082;-58
2024/01/19 07:38:05;;;;;;;203.57;188.52;;;;;;;8.06;100.00;100118.03;5071652;28;20057;-58
2024/01/19 07:40:32;;;;;;;206.00;190.77;;;;;;;8.19;100.00;100112.72;5083049;28;20511;-58
2024/01/19 07:42:59;;;;;;;215.55;200.32;;;;;;;8.60;100.00;100114.34;5077683;28;20048;-58
2024/01/19 07:45:26;;;;;;;206.90;192.30;;;;;;;8.32;100.00;100115.38;5074359;28;20057;-58
2024/01/19 07:47:53;;;;;;;213.00;198.00;;;;;;;9.05;100.00;100109.09;5073910;28;20394;-58
2024/01/19 07:50:19;;;;;;;204.57;190.32;;;;;;;8.95;100.00;100118.28;5068223;28;20068;-58
2024/01/19 07:52:48;;;;;;;220.20;204.57;;;;;;;9.45;100.00;100112.34;5072364;28;20052;-58
2024/01/19 07:55:15;;;;;;;209.77;195.10;;;;;;;9.39;100.00;100114.00;5079044;28;20072;-58
2024/01/19 07:57:41;;;;;;;209.98;195.77;;;;;;;9.88;100.00;100105.53;5080942;28;20056;-58
2024/01/19 08:00:09;;;;;;;181.48;168.98;;;;;;;9.92;100.00;100118.13;5069849;28;20427;-58
2024/01/19 08:02:36;;;;;;;157.88;146.77;;;;;;;10.05;100.00;100123.34;5079248;28;20539;-59
2024/01/19 08:05:03;;;;;;;159.85;148.70;;;;;;;9.84;100.00;100119.22;5082660;28;20455;-58
2024/01/19 08:07:30;;;;;;;151.30;140.52;;;;;;;10.44;100.00;100112.59;5082214;28;20052;-58
2024/01/19 08:09:59;;;;;;;135.30;125.75;;;;;;;10.11;100.00;100113.72;5082535;28;20048;-57
2024/01/19 08:12:26;;;;;;;137.35;127.85;;;;;;;9.92;100.00;100119.97;5071995;28;20079;-57
2024/01/19 08:14:55;;;;;;;119.13;110.40;;;;;;;10.31;100.00;100113.56;5082361;28;20512;-57
2024/01/19 08:17:22;;;;;;;113.63;105.75;;;;;;;10.08;100.00;100114.97;5076581;28;20177;-59
2024/01/19 08:19:49;;;;;;;137.65;127.57;;;;;;;10.45;100.00;100114.25;5083095;28;20501;-57
2024/01/19 08:22:15;;;;;;;164.95;154.30;;;;;;;11.43;100.00;100115.94;5081556;28;20208;-58
2024/01/19 08:24:42;;;;;;;176.43;164.48;;;;;;;11.86;100.00;100118.41;5077900;28;20045;-58
2024/01/19 08:27:10;;;;;;;184.30;172.15;;;;;;;11.93;100.00;100115.66;5072377;28;20048;-57
2024/01/19 08:29:37;;;;;;;184.38;172.40;;;;;;;12.51;100.00;100116.72;5078354;28;20052;-57
2024/01/19 08:32:04;;;;;;;161.95;150.55;;;;;;;12.25;100.00;100124.09;5077735;28;20073;-57
2024/01/19 08:34:31;;;;;;;134.77;125.78;;;;;;;12.28;100.00;100123.66;5074354;28;20052;-57
2024/01/19 08:36:58;;;;;;;128.88;120.03;;;;;;;12.36;100.00;100128.63;5077693;28;20063;-58
2024/01/19 08:39:25;;;;;;;113.30;105.40;;;;;;;12.53;100.00;100133.28;5078472;28;20533;-58
2024/01/19 08:41:52;;;;;;;116.63;108.43;;;;;;;12.98;100.00;100130.78;5070375;28;20503;-58
2024/01/19 08:44:20;;;;;;;114.28;106.57;;;;;;;12.07;100.00;100124.22;5073684;28;20064;-57
2024/01/19 08:46:47;;;;;;;92.18;85.68;;;;;;;12.03;100.00;100131.03;5076325;28;20056;-58
2024/01/19 08:49:14;;;;;;;61.17;56.47;;;;;;;11.79;100.00;100122.19;5081351;28;20067;-59
2024/01/19 08:51:43;;;;;;;109.18;101.47;;;;;;;12.81;100.00;100130.69;5080333;28;20087;-57
2024/01/19 08:54:10;;;;;;;66.95;62.20;;;;;;;11.15;100.00;100124.50;5075033;28;20052;-57
2024/01/19 08:56:37;;;;;;;44.65;41.55;;;;;;;10.22;100.00;100126.25;5079943;28;20058;-57
2024/01/19 08:59:04;;;;;;;54.35;50.35;;;;;;;11.38;100.00;100110.50;5076336;28;20053;-58
2024/01/19 09:01:34;;;;;;;86.85;80.72;;;;;;;12.21;100.00;100120.28;5076039;28;20047;-57
2024/01/19 09:04:00;;;;;;;148.27;138.50;;;;;;;12.97;100.00;100115.81;5083421;28;20052;-57
2024/01/19 09:06:27;;;;;;;173.20;162.40;;;;;;;14.09;100.00;100102.88;5081231;28;20565;-57
2024/01/19 09:08:54;;;;;;;94.93;88.68;;;;;;;13.36;100.00;100102.72;5076713;28;20486;-58
2024/01/19 09:11:21;;;;;;;77.55;71.85;;;;;;;14.70;100.00;100098.41;5078193;28;20048;-57
2024/01/19 09:13:48;;;;;;;48.30;44.00;;;;;;;14.29;100.00;100103.19;5073290;28;20056;-58
2024/01/19 09:16:14;;;;;;;39.78;36.78;;;;;;;12.38;100.00;100115.91;5077523;28;20062;-57
2024/01/19 09:18:43;;;;;;;44.30;40.90;;;;;;;13.26;100.00;100122.00;5080712;28;20491;-58
2024/01/19 09:21:17;;;;;;;43.17;39.63;;;;;;;14.26;100.00;100114.34;5071678;28;20052;-57
2024/01/19 09:23:44;;;;;;;38.58;35.28;;;;;;;14.41;100.00;100113.75;5071987;28;20420;-57
2024/01/19 09:26:18;;;;;;;33.20;30.50;;;;;;;13.61;100.00;100120.22;5076570;28;20068;-57
2024/01/19 09:28:45;;;;;;;36.85;34.03;;;;;;;15.32;100.00;100108.75;5076608;28;20486;-57
2024/01/19 09:31:12;;;;;;;31.58;29.10;;;;;;;14.63;100.00;100111.16;5076271;28;20076;-57
2024/01/19 09:33:39;;;;;;;30.73;28.42;;;;;;;14.64;100.00;100120.78;5077442;28;20452;-58
2024/01/19 09:36:08;;;;;;;33.60;31.20;;;;;;;14.54;100.00;100128.66;5073868;28;20052;-57
2024/01/19 09:38:37;;;;;;;32.28;30.08;;;;;;;12.95;100.00;100133.06;5071546;28;20060;-57
2024/01/19 09:41:11;;;;;;;28.90;26.90;;;;;;;11.81;100.00;100123.56;5073447;28;20056;-57
2024/01/19 09:43:42;;;;;;;29.00;27.00;;;;;;;11.85;100.00;100122.09;5080209;28;20056;-58
2024/01/19 09:46:18;;;;;;;32.10;29.85;;;;;;;13.57;100.00;100113.75;5080747;28;20109;-57
2024/01/19 09:48:59;;;;;;;29.70;27.60;;;;;;;13.24;100.00;100110.72;5076538;28;20052;-57
2024/01/19 09:51:40;;;;;;;26.30;24.50;;;;;;;11.13;100.00;100121.25;5079523;28;20409;-57
2024/01/19 09:54:09;;;;;;;26.50;24.40;;;;;;;10.47;100.00;100120.97;5077453;28;20083;-57
2024/01/19 09:56:38;;;;;;;27.17;25.25;;;;;;;10.59;100.00;100123.72;5077208;28;20048;-57
2024/01/19 09:59:07;;;;;;;24.83;23.00;;;;;;;8.44;100.00;100124.34;5074360;28;20058;-58
2024/01/19 10:01:35;;;;;;;26.88;24.88;;;;;;;11.04;100.00;100111.94;5069547;28;20056;-57
2024/01/19 10:04:06;;;;;;;46.78;43.55;;;;;;;13.83;100.00;100102.47;5080974;28;20060;-57
2024/01/19 10:06:35;;;;;;;30.10;27.60;;;;;;;11.71;100.00;100107.38;5078404;28;20089;-57
2024/01/19 10:09:04;;;;;;;25.20;23.40;;;;;;;11.32;100.00;100103.44;5068605;28;20056;-59
2024/01/19 10:11:32;;;;;;;35.50;32.90;;;;;;;15.21;100.00;100100.88;5073938;28;20083;-57
2024/01/19 10:13:59;;;;;;;31.17;28.92;;;;;;;15.23;100.00;100101.44;5079715;28;20069;-59
2024/01/19 10:16:25;;;;;;;33.53;31.23;;;;;;;14.87;100.00;100099.16;5082721;28;20511;-57
2024/01/19 10:18:53;;;;;;;27.55;25.65;;;;;;;14.32;100.00;100105.34;5077104;28;20063;-58
2024/01/19 10:21:27;;;;;;;26.80;24.90;;;;;;;11.28;100.00;100102.25;5070992;28;20101;-57
2024/01/19 10:24:09;;;;;;;37.42;34.92;;;;;;;16.91;100.00;100097.34;5075902;28;20431;-58
2024/01/19 10:26:36;;;;;;;35.38;32.67;;;;;;;17.32;100.00;100083.25;5079380;28;20060;-58
2024/01/19 10:29:10;;;;;;;28.00;26.20;;;;;;;14.88;100.00;100084.72;5080778;28;20101;-57
2024/01/19 10:31:38;;;;;;;26.52;24.60;;;;;;;11.35;100.00;100082.50;5075649;28;20052;-57
2024/01/19 10:34:05;;;;;;;35.13;32.42;;;;;;;14.99;100.00;100079.50;5063829;28;20053;-57
2024/01/19 10:36:39;;;;;;;29.35;27.35;;;;;;;14.22;100.00;100081.19;5080572;28;20063;-57
2024/01/19 10:39:21;;;;;;;25.30;23.60;;;;;;;11.42;100.00;100075.25;5076390;28;20380;-57
2024/01/19 10:41:49;;;;;;;33.40;23.65;;;;;;;10.50;100.00;100082.56;5081277;28;20055;-58
2024/01/19 10:44:19;;;;;;;34.60;32.00;;;;;;;16.62;100.00;100080.84;5082608;28;20062;-58
2024/01/19 10:46:49;;;;;;;27.27;25.38;;;;;;;15.32;100.00;100073.19;5080170;28;20140;-57
2024/01/19 10:49:16;;;;;;;23.70;22.10;;;;;;;12.63;100.00;100074.88;5070163;28;20061;-57
2024/01/19 10:51:44;;;;;;;25.30;23.50;;;;;;;12.50;100.00;100083.94;5071508;28;20055;-57
2024/01/19 10:54:16;;;;;;;30.42;28.50;;;;;;;11.55;100.00;100076.91;5069541;28;20068;-59
2024/01/19 10:56:46;;;;;;;26.30;24.50;;;;;;;15.76;100.00;100084.59;5071019;28;20058;-58
2024/01/19 10:59:14;;;;;;;24.00;22.02;;;;;;;16.58;100.00;100071.72;5074689;28;20578;-60
2024/01/19 11:01:42;;;;;;;29.92;28.02;;;;;;;14.35;100.00;100083.50;5079795;28;20083;-59
2024/01/19 11:04:10;;;;;;;29.48;27.25;;;;;;;16.27;100.00;100079.56;5075746;28;20056;-57